Clinton, Washington
Current Conditions -  °F | °C
As of 4:16 AM on Sunday 23 Nov 2014 (Local Time) from KPAE Reporting Station
Broken Clouds Broken Clouds  
Wind Chill: 39°   Ceiling: 4600
Heat Index: 47°   Visibility: 10mi
Dew Point: 42°   Wind: 21mph
Humidity: 83%   Direction: 190°S
Pressure: 30.08"   Gusts: 25mph
Location:  47.98°N, 122.36°W
Report Text: KPAE 231216Z AUTO 19018G22KT 10SM FEW009 SCT013 BKN046 08/06 A3008 RMK AO2 T00830056 $
Loading
Personal Weather Stations






























Interactive Weather Map New forecast layout! Learn more

10-Day Weather Forecast

Advertisements
Track Severe Weather on mobile